sensor_id;sensor_type;location;lat;lon;timestamp;P1;durP1;ratioP1;P2;durP2;ratioP2
60078;SDS011;45951;45.824;8.824;2023-09-07T00:00:37;6.78;;;5.75;;
60078;SDS011;45951;45.824;8.824;2023-09-07T00:02:18;7.35;;;5.93;;
60078;SDS011;45951;45.824;8.824;2023-09-07T00:03:58;8.15;;;5.60;;
60078;SDS011;45951;45.824;8.824;2023-09-07T00:05:38;7.72;;;5.72;;
60078;SDS011;45951;45.824;8.824;2023-09-07T00:07:18;8.60;;;6.97;;
60078;SDS011;45951;45.824;8.824;2023-09-07T00:08:59;7.60;;;6.00;;
60078;SDS011;45951;45.824;8.824;2023-09-07T00:10:39;7.43;;;5.50;;
60078;SDS011;45951;45.824;8.824;2023-09-07T00:12:19;7.32;;;5.25;;
60078;SDS011;45951;45.824;8.824;2023-09-07T00:14:00;8.07;;;5.55;;
60078;SDS011;45951;45.824;8.824;2023-09-07T00:15:40;8.77;;;5.53;;
60078;SDS011;45951;45.824;8.824;2023-09-07T00:17:21;6.30;;;5.05;;
60078;SDS011;45951;45.824;8.824;2023-09-07T00:19:01;6.70;;;5.22;;
60078;SDS011;45951;45.824;8.824;2023-09-07T00:20:44;8.05;;;5.80;;
60078;SDS011;45951;45.824;8.824;2023-09-07T00:22:25;6.57;;;5.10;;
60078;SDS011;45951;45.824;8.824;2023-09-07T00:24:07;7.68;;;5.78;;
60078;SDS011;45951;45.824;8.824;2023-09-07T00:25:48;8.90;;;5.57;;
60078;SDS011;45951;45.824;8.824;2023-09-07T00:27:28;7.55;;;6.03;;
60078;SDS011;45951;45.824;8.824;2023-09-07T00:29:09;7.43;;;5.53;;
60078;SDS011;45951;45.824;8.824;2023-09-07T00:30:49;7.30;;;5.43;;
60078;SDS011;45951;45.824;8.824;2023-09-07T00:32:29;7.97;;;5.75;;
60078;SDS011;45951;45.824;8.824;2023-09-07T00:34:10;8.10;;;5.50;;
60078;SDS011;45951;45.824;8.824;2023-09-07T00:35:50;7.70;;;5.45;;
60078;SDS011;45951;45.824;8.824;2023-09-07T00:37:31;7.20;;;5.80;;
60078;SDS011;45951;45.824;8.824;2023-09-07T00:39:11;7.60;;;5.80;;
60078;SDS011;45951;45.824;8.824;2023-09-07T00:40:52;7.47;;;5.60;;
60078;SDS011;45951;45.824;8.824;2023-09-07T00:42:32;8.87;;;5.43;;
60078;SDS011;45951;45.824;8.824;2023-09-07T00:44:13;7.63;;;5.93;;
60078;SDS011;45951;45.824;8.824;2023-09-07T00:45:53;7.15;;;5.38;;
60078;SDS011;45951;45.824;8.824;2023-09-07T00:47:34;8.40;;;5.95;;
60078;SDS011;45951;45.824;8.824;2023-09-07T00:49:16;7.50;;;5.53;;
60078;SDS011;45951;45.824;8.824;2023-09-07T00:50:56;7.13;;;5.85;;
60078;SDS011;45951;45.824;8.824;2023-09-07T00:52:36;6.78;;;5.28;;
60078;SDS011;45951;45.824;8.824;2023-09-07T00:54:19;7.15;;;5.35;;
60078;SDS011;45951;45.824;8.824;2023-09-07T00:56:00;8.27;;;5.97;;
60078;SDS011;45951;45.824;8.824;2023-09-07T00:57:41;8.40;;;5.60;;
60078;SDS011;45951;45.824;8.824;2023-09-07T00:59:22;7.63;;;5.55;;
60078;SDS011;45951;45.824;8.824;2023-09-07T01:01:03;7.30;;;5.53;;
60078;SDS011;45951;45.824;8.824;2023-09-07T01:02:43;8.90;;;5.90;;
60078;SDS011;45951;45.824;8.824;2023-09-07T01:04:24;9.00;;;6.20;;
60078;SDS011;45951;45.824;8.824;2023-09-07T01:06:12;10.07;;;5.93;;
60078;SDS011;45951;45.824;8.824;2023-09-07T01:07:57;7.68;;;5.53;;
60078;SDS011;45951;45.824;8.824;2023-09-07T01:09:40;8.93;;;5.90;;
60078;SDS011;45951;45.824;8.824;2023-09-07T01:11:20;6.95;;;5.85;;
60078;SDS011;45951;45.824;8.824;2023-09-07T01:13:02;6.97;;;5.50;;
60078;SDS011;45951;45.824;8.824;2023-09-07T01:14:43;8.13;;;5.88;;
60078;SDS011;45951;45.824;8.824;2023-09-07T01:16:23;7.65;;;5.43;;
60078;SDS011;45951;45.824;8.824;2023-09-07T01:18:04;8.15;;;5.70;;
60078;SDS011;45951;45.824;8.824;2023-09-07T01:19:44;8.15;;;6.35;;
60078;SDS011;45951;45.824;8.824;2023-09-07T01:21:26;7.85;;;5.85;;
60078;SDS011;45951;45.824;8.824;2023-09-07T01:23:07;7.97;;;5.85;;
60078;SDS011;45951;45.824;8.824;2023-09-07T01:24:47;7.72;;;5.80;;
60078;SDS011;45951;45.824;8.824;2023-09-07T01:26:27;9.18;;;6.75;;
60078;SDS011;45951;45.824;8.824;2023-09-07T01:28:08;9.10;;;6.32;;
60078;SDS011;45951;45.824;8.824;2023-09-07T01:29:48;8.23;;;5.93;;
60078;SDS011;45951;45.824;8.824;2023-09-07T01:31:30;8.07;;;5.90;;
60078;SDS011;45951;45.824;8.824;2023-09-07T01:33:10;7.43;;;6.00;;
60078;SDS011;45951;45.824;8.824;2023-09-07T01:34:51;9.13;;;5.75;;
60078;SDS011;45951;45.824;8.824;2023-09-07T01:36:33;7.35;;;5.95;;
60078;SDS011;45951;45.824;8.824;2023-09-07T01:38:13;7.57;;;5.57;;
60078;SDS011;45951;45.824;8.824;2023-09-07T01:39:53;7.40;;;5.97;;
60078;SDS011;45951;45.824;8.824;2023-09-07T01:41:34;7.95;;;5.82;;
60078;SDS011;45951;45.824;8.824;2023-09-07T01:43:14;7.35;;;5.53;;
60078;SDS011;45951;45.824;8.824;2023-09-07T01:44:54;6.93;;;5.38;;
60078;SDS011;45951;45.824;8.824;2023-09-07T01:46:35;7.60;;;5.35;;
60078;SDS011;45951;45.824;8.824;2023-09-07T01:48:18;7.75;;;5.47;;
60078;SDS011;45951;45.824;8.824;2023-09-07T01:49:58;7.72;;;5.53;;
60078;SDS011;45951;45.824;8.824;2023-09-07T01:51:39;8.07;;;6.10;;
60078;SDS011;45951;45.824;8.824;2023-09-07T01:53:19;9.02;;;6.28;;
60078;SDS011;45951;45.824;8.824;2023-09-07T01:55:00;7.30;;;5.82;;
60078;SDS011;45951;45.824;8.824;2023-09-07T01:56:40;8.45;;;5.40;;
60078;SDS011;45951;45.824;8.824;2023-09-07T01:58:21;7.80;;;5.88;;
60078;SDS011;45951;45.824;8.824;2023-09-07T02:00:04;8.60;;;6.60;;
60078;SDS011;45951;45.824;8.824;2023-09-07T02:01:45;7.20;;;5.68;;
60078;SDS011;45951;45.824;8.824;2023-09-07T02:03:26;10.63;;;6.10;;
60078;SDS011;45951;45.824;8.824;2023-09-07T02:05:06;7.40;;;5.95;;
60078;SDS011;45951;45.824;8.824;2023-09-07T02:06:48;8.43;;;6.30;;
60078;SDS011;45951;45.824;8.824;2023-09-07T02:08:28;10.25;;;6.18;;
60078;SDS011;45951;45.824;8.824;2023-09-07T02:10:08;7.80;;;5.70;;
60078;SDS011;45951;45.824;8.824;2023-09-07T02:11:49;8.85;;;5.80;;
60078;SDS011;45951;45.824;8.824;2023-09-07T02:13:30;7.88;;;5.72;;
60078;SDS011;45951;45.824;8.824;2023-09-07T02:15:10;7.40;;;6.32;;
60078;SDS011;45951;45.824;8.824;2023-09-07T02:16:50;8.25;;;6.03;;
60078;SDS011;45951;45.824;8.824;2023-09-07T02:18:31;8.13;;;6.20;;
60078;SDS011;45951;45.824;8.824;2023-09-07T02:20:12;8.57;;;6.18;;
60078;SDS011;45951;45.824;8.824;2023-09-07T02:21:53;6.88;;;5.30;;
60078;SDS011;45951;45.824;8.824;2023-09-07T02:23:34;7.55;;;5.57;;
60078;SDS011;45951;45.824;8.824;2023-09-07T02:25:15;7.38;;;5.30;;
60078;SDS011;45951;45.824;8.824;2023-09-07T02:26:55;10.63;;;6.20;;
60078;SDS011;45951;45.824;8.824;2023-09-07T02:28:36;7.70;;;6.10;;
60078;SDS011;45951;45.824;8.824;2023-09-07T02:30:16;7.75;;;6.00;;
60078;SDS011;45951;45.824;8.824;2023-09-07T02:31:57;7.93;;;6.00;;
60078;SDS011;45951;45.824;8.824;2023-09-07T02:33:40;8.23;;;5.95;;
60078;SDS011;45951;45.824;8.824;2023-09-07T02:35:20;7.85;;;6.05;;
60078;SDS011;45951;45.824;8.824;2023-09-07T02:37:01;9.65;;;6.18;;
60078;SDS011;45951;45.824;8.824;2023-09-07T02:38:44;7.28;;;5.97;;
60078;SDS011;45951;45.824;8.824;2023-09-07T02:40:25;7.55;;;5.47;;
60078;SDS011;45951;45.824;8.824;2023-09-07T02:42:05;8.07;;;6.10;;
60078;SDS011;45951;45.824;8.824;2023-09-07T02:43:46;8.65;;;5.55;;
60078;SDS011;45951;45.824;8.824;2023-09-07T02:45:26;7.90;;;5.88;;
60078;SDS011;45951;45.824;8.824;2023-09-07T02:47:06;7.78;;;5.82;;
60078;SDS011;45951;45.824;8.824;2023-09-07T02:48:47;7.28;;;5.63;;
60078;SDS011;45951;45.824;8.824;2023-09-07T02:50:29;8.18;;;6.05;;
60078;SDS011;45951;45.824;8.824;2023-09-07T02:52:10;7.68;;;5.82;;
60078;SDS011;45951;45.824;8.824;2023-09-07T02:53:51;7.75;;;5.97;;
60078;SDS011;45951;45.824;8.824;2023-09-07T02:55:31;7.72;;;6.15;;
60078;SDS011;45951;45.824;8.824;2023-09-07T02:57:11;7.28;;;6.25;;
60078;SDS011;45951;45.824;8.824;2023-09-07T02:58:52;7.97;;;5.88;;
60078;SDS011;45951;45.824;8.824;2023-09-07T03:00:33;7.50;;;5.75;;
60078;SDS011;45951;45.824;8.824;2023-09-07T03:02:14;8.10;;;6.00;;
60078;SDS011;45951;45.824;8.824;2023-09-07T03:03:55;8.20;;;5.95;;
60078;SDS011;45951;45.824;8.824;2023-09-07T03:05:35;9.10;;;5.95;;
60078;SDS011;45951;45.824;8.824;2023-09-07T03:07:15;7.82;;;5.43;;
60078;SDS011;45951;45.824;8.824;2023-09-07T03:08:56;7.32;;;5.90;;
60078;SDS011;45951;45.824;8.824;2023-09-07T03:10:37;7.93;;;5.63;;
60078;SDS011;45951;45.824;8.824;2023-09-07T03:12:19;7.43;;;5.50;;
60078;SDS011;45951;45.824;8.824;2023-09-07T03:14:00;8.80;;;6.13;;
60078;SDS011;45951;45.824;8.824;2023-09-07T03:15:40;9.80;;;6.10;;
60078;SDS011;45951;45.824;8.824;2023-09-07T03:17:21;6.90;;;5.63;;
60078;SDS011;45951;45.824;8.824;2023-09-07T03:19:01;8.25;;;5.97;;
60078;SDS011;45951;45.824;8.824;2023-09-07T03:20:42;7.55;;;5.43;;
60078;SDS011;45951;45.824;8.824;2023-09-07T03:22:23;7.50;;;5.32;;
60078;SDS011;45951;45.824;8.824;2023-09-07T03:24:03;8.05;;;6.00;;
60078;SDS011;45951;45.824;8.824;2023-09-07T03:25:44;7.82;;;5.75;;
60078;SDS011;45951;45.824;8.824;2023-09-07T03:27:24;6.88;;;5.70;;
60078;SDS011;45951;45.824;8.824;2023-09-07T03:29:04;8.15;;;5.78;;
60078;SDS011;45951;45.824;8.824;2023-09-07T03:30:44;7.97;;;5.43;;
60078;SDS011;45951;45.824;8.824;2023-09-07T03:32:25;7.85;;;5.75;;
60078;SDS011;45951;45.824;8.824;2023-09-07T03:34:08;8.07;;;6.03;;
60078;SDS011;45951;45.824;8.824;2023-09-07T03:35:49;7.35;;;6.05;;
60078;SDS011;45951;45.824;8.824;2023-09-07T03:37:29;7.28;;;6.10;;
60078;SDS011;45951;45.824;8.824;2023-09-07T03:39:09;7.38;;;5.78;;
60078;SDS011;45951;45.824;8.824;2023-09-07T03:40:50;8.02;;;5.70;;
60078;SDS011;45951;45.824;8.824;2023-09-07T03:42:30;8.73;;;6.22;;
60078;SDS011;45951;45.824;8.824;2023-09-07T03:44:10;7.90;;;5.60;;
60078;SDS011;45951;45.824;8.824;2023-09-07T03:45:51;7.68;;;5.45;;
60078;SDS011;45951;45.824;8.824;2023-09-07T03:47:31;8.90;;;5.57;;
60078;SDS011;45951;45.824;8.824;2023-09-07T03:49:11;7.70;;;5.80;;
60078;SDS011;45951;45.824;8.824;2023-09-07T03:50:52;8.52;;;5.57;;
60078;SDS011;45951;45.824;8.824;2023-09-07T03:52:32;7.18;;;5.63;;
60078;SDS011;45951;45.824;8.824;2023-09-07T03:54:13;7.30;;;5.95;;
60078;SDS011;45951;45.824;8.824;2023-09-07T03:55:53;7.82;;;5.75;;
60078;SDS011;45951;45.824;8.824;2023-09-07T03:57:33;7.57;;;5.35;;
60078;SDS011;45951;45.824;8.824;2023-09-07T03:59:13;7.25;;;5.47;;
60078;SDS011;45951;45.824;8.824;2023-09-07T04:00:54;8.05;;;5.57;;
60078;SDS011;45951;45.824;8.824;2023-09-07T04:02:34;7.57;;;5.80;;
60078;SDS011;45951;45.824;8.824;2023-09-07T04:04:14;7.60;;;5.47;;
60078;SDS011;45951;45.824;8.824;2023-09-07T04:05:55;8.25;;;5.90;;
60078;SDS011;45951;45.824;8.824;2023-09-07T04:07:35;7.68;;;5.60;;
60078;SDS011;45951;45.824;8.824;2023-09-07T04:09:16;8.20;;;5.82;;
60078;SDS011;45951;45.824;8.824;2023-09-07T04:10:56;8.52;;;6.10;;
60078;SDS011;45951;45.824;8.824;2023-09-07T04:12:37;7.38;;;5.85;;
60078;SDS011;45951;45.824;8.824;2023-09-07T04:14:17;7.60;;;5.68;;
60078;SDS011;45951;45.824;8.824;2023-09-07T04:15:57;8.38;;;5.80;;
60078;SDS011;45951;45.824;8.824;2023-09-07T04:17:38;7.97;;;5.80;;
60078;SDS011;45951;45.824;8.824;2023-09-07T04:19:20;7.80;;;5.47;;
60078;SDS011;45951;45.824;8.824;2023-09-07T04:21:07;7.35;;;5.47;;
60078;SDS011;45951;45.824;8.824;2023-09-07T04:22:48;7.28;;;5.38;;
60078;SDS011;45951;45.824;8.824;2023-09-07T04:24:28;9.02;;;5.72;;
60078;SDS011;45951;45.824;8.824;2023-09-07T04:26:09;9.13;;;5.72;;
60078;SDS011;45951;45.824;8.824;2023-09-07T04:27:50;8.23;;;5.55;;
60078;SDS011;45951;45.824;8.824;2023-09-07T04:29:30;6.90;;;5.60;;
60078;SDS011;45951;45.824;8.824;2023-09-07T04:31:11;6.93;;;5.90;;
60078;SDS011;45951;45.824;8.824;2023-09-07T04:32:51;8.30;;;5.60;;
60078;SDS011;45951;45.824;8.824;2023-09-07T04:34:31;7.40;;;5.68;;
60078;SDS011;45951;45.824;8.824;2023-09-07T04:36:13;7.47;;;5.88;;
60078;SDS011;45951;45.824;8.824;2023-09-07T04:37:53;7.35;;;5.43;;
60078;SDS011;45951;45.824;8.824;2023-09-07T04:39:34;7.60;;;5.28;;
60078;SDS011;45951;45.824;8.824;2023-09-07T04:41:14;8.73;;;5.47;;
60078;SDS011;45951;45.824;8.824;2023-09-07T04:42:55;6.85;;;5.05;;
60078;SDS011;45951;45.824;8.824;2023-09-07T04:44:36;8.23;;;5.80;;
60078;SDS011;45951;45.824;8.824;2023-09-07T04:46:16;8.52;;;5.93;;
60078;SDS011;45951;45.824;8.824;2023-09-07T04:47:57;7.95;;;5.30;;
60078;SDS011;45951;45.824;8.824;2023-09-07T04:49:37;7.60;;;5.40;;
60078;SDS011;45951;45.824;8.824;2023-09-07T04:51:17;7.57;;;5.60;;
60078;SDS011;45951;45.824;8.824;2023-09-07T04:52:57;7.70;;;5.68;;
60078;SDS011;45951;45.824;8.824;2023-09-07T04:54:38;8.57;;;5.68;;
60078;SDS011;45951;45.824;8.824;2023-09-07T04:56:18;8.82;;;5.75;;
60078;SDS011;45951;45.824;8.824;2023-09-07T04:57:59;7.85;;;5.60;;
60078;SDS011;45951;45.824;8.824;2023-09-07T04:59:39;7.93;;;5.63;;
60078;SDS011;45951;45.824;8.824;2023-09-07T05:01:20;6.95;;;5.28;;
60078;SDS011;45951;45.824;8.824;2023-09-07T05:03:00;7.32;;;5.50;;
60078;SDS011;45951;45.824;8.824;2023-09-07T05:04:40;7.03;;;5.53;;
60078;SDS011;45951;45.824;8.824;2023-09-07T05:06:21;7.88;;;5.80;;
60078;SDS011;45951;45.824;8.824;2023-09-07T05:08:03;9.60;;;6.00;;
60078;SDS011;45951;45.824;8.824;2023-09-07T05:09:45;7.82;;;5.53;;
60078;SDS011;45951;45.824;8.824;2023-09-07T05:11:25;8.65;;;5.70;;
60078;SDS011;45951;45.824;8.824;2023-09-07T05:13:05;8.80;;;5.70;;
60078;SDS011;45951;45.824;8.824;2023-09-07T05:14:45;7.28;;;5.97;;
60078;SDS011;45951;45.824;8.824;2023-09-07T05:16:26;7.63;;;6.00;;
60078;SDS011;45951;45.824;8.824;2023-09-07T05:18:06;10.05;;;5.90;;
60078;SDS011;45951;45.824;8.824;2023-09-07T05:19:46;8.70;;;6.00;;
60078;SDS011;45951;45.824;8.824;2023-09-07T05:21:27;7.13;;;5.57;;
60078;SDS011;45951;45.824;8.824;2023-09-07T05:23:07;7.15;;;5.75;;
60078;SDS011;45951;45.824;8.824;2023-09-07T05:24:47;7.82;;;5.50;;
60078;SDS011;45951;45.824;8.824;2023-09-07T05:26:27;7.25;;;5.40;;
60078;SDS011;45951;45.824;8.824;2023-09-07T05:28:08;6.93;;;5.22;;
60078;SDS011;45951;45.824;8.824;2023-09-07T05:29:48;8.55;;;5.97;;
60078;SDS011;45951;45.824;8.824;2023-09-07T05:31:29;8.30;;;5.90;;
60078;SDS011;45951;45.824;8.824;2023-09-07T05:33:09;7.72;;;5.68;;
60078;SDS011;45951;45.824;8.824;2023-09-07T05:34:50;7.88;;;5.95;;
60078;SDS011;45951;45.824;8.824;2023-09-07T05:36:30;9.82;;;6.50;;
60078;SDS011;45951;45.824;8.824;2023-09-07T05:38:11;8.80;;;6.65;;
60078;SDS011;45951;45.824;8.824;2023-09-07T05:39:51;8.63;;;6.70;;
60078;SDS011;45951;45.824;8.824;2023-09-07T05:41:31;8.35;;;6.53;;
60078;SDS011;45951;45.824;8.824;2023-09-07T05:43:12;9.93;;;7.00;;
60078;SDS011;45951;45.824;8.824;2023-09-07T05:44:52;7.53;;;6.22;;
60078;SDS011;45951;45.824;8.824;2023-09-07T05:46:32;10.18;;;6.75;;
60078;SDS011;45951;45.824;8.824;2023-09-07T05:48:13;9.02;;;6.70;;
60078;SDS011;45951;45.824;8.824;2023-09-07T05:49:53;8.20;;;6.18;;
60078;SDS011;45951;45.824;8.824;2023-09-07T05:51:33;8.13;;;5.90;;
60078;SDS011;45951;45.824;8.824;2023-09-07T05:53:14;7.40;;;5.45;;
60078;SDS011;45951;45.824;8.824;2023-09-07T05:54:54;7.88;;;5.50;;
60078;SDS011;45951;45.824;8.824;2023-09-07T05:56:34;8.60;;;5.85;;
60078;SDS011;45951;45.824;8.824;2023-09-07T05:58:15;8.13;;;5.60;;
60078;SDS011;45951;45.824;8.824;2023-09-07T05:59:55;9.00;;;5.97;;
60078;SDS011;45951;45.824;8.824;2023-09-07T06:01:36;7.93;;;5.10;;
60078;SDS011;45951;45.824;8.824;2023-09-07T06:03:16;7.30;;;5.65;;
60078;SDS011;45951;45.824;8.824;2023-09-07T06:04:56;7.32;;;5.40;;
60078;SDS011;45951;45.824;8.824;2023-09-07T06:06:37;6.72;;;5.30;;
60078;SDS011;45951;45.824;8.824;2023-09-07T06:08:17;7.85;;;5.53;;
60078;SDS011;45951;45.824;8.824;2023-09-07T06:09:57;7.63;;;5.50;;
60078;SDS011;45951;45.824;8.824;2023-09-07T06:11:38;6.88;;;5.30;;
60078;SDS011;45951;45.824;8.824;2023-09-07T06:13:19;6.90;;;5.40;;
60078;SDS011;45951;45.824;8.824;2023-09-07T06:14:59;7.57;;;5.13;;
60078;SDS011;45951;45.824;8.824;2023-09-07T06:16:40;6.90;;;5.30;;
60078;SDS011;45951;45.824;8.824;2023-09-07T06:18:21;7.45;;;5.40;;
60078;SDS011;45951;45.824;8.824;2023-09-07T06:20:01;7.05;;;5.15;;
60078;SDS011;45951;45.824;8.824;2023-09-07T06:21:42;7.60;;;5.45;;
60078;SDS011;45951;45.824;8.824;2023-09-07T06:23:22;6.68;;;5.85;;
60078;SDS011;45951;45.824;8.824;2023-09-07T06:25:03;6.80;;;6.03;;
60078;SDS011;45951;45.824;8.824;2023-09-07T06:26:43;7.75;;;6.18;;
60078;SDS011;45951;45.824;8.824;2023-09-07T06:28:24;6.75;;;5.95;;
60078;SDS011;45951;45.824;8.824;2023-09-07T06:30:05;9.07;;;5.88;;
60078;SDS011;45951;45.824;8.824;2023-09-07T06:31:46;7.43;;;6.07;;
60078;SDS011;45951;45.824;8.824;2023-09-07T06:33:29;7.63;;;6.10;;
60078;SDS011;45951;45.824;8.824;2023-09-07T06:35:09;8.40;;;6.25;;
60078;SDS011;45951;45.824;8.824;2023-09-07T06:36:50;8.90;;;6.35;;
60078;SDS011;45951;45.824;8.824;2023-09-07T06:38:30;7.57;;;6.00;;
60078;SDS011;45951;45.824;8.824;2023-09-07T06:40:11;6.95;;;5.72;;
60078;SDS011;45951;45.824;8.824;2023-09-07T06:41:53;7.97;;;5.88;;
60078;SDS011;45951;45.824;8.824;2023-09-07T06:43:33;7.57;;;5.57;;
60078;SDS011;45951;45.824;8.824;2023-09-07T06:45:14;8.15;;;6.15;;
60078;SDS011;45951;45.824;8.824;2023-09-07T06:46:54;8.95;;;6.03;;
60078;SDS011;45951;45.824;8.824;2023-09-07T06:48:35;8.50;;;5.90;;
60078;SDS011;45951;45.824;8.824;2023-09-07T06:50:15;8.45;;;5.45;;
60078;SDS011;45951;45.824;8.824;2023-09-07T06:51:56;9.32;;;5.85;;
60078;SDS011;45951;45.824;8.824;2023-09-07T06:53:36;9.02;;;6.57;;
60078;SDS011;45951;45.824;8.824;2023-09-07T06:55:16;8.77;;;5.95;;
60078;SDS011;45951;45.824;8.824;2023-09-07T06:56:57;10.13;;;5.60;;
60078;SDS011;45951;45.824;8.824;2023-09-07T06:58:37;10.75;;;6.20;;
60078;SDS011;45951;45.824;8.824;2023-09-07T07:00:17;9.70;;;6.10;;
60078;SDS011;45951;45.824;8.824;2023-09-07T07:01:58;8.70;;;6.25;;
60078;SDS011;45951;45.824;8.824;2023-09-07T07:03:40;8.35;;;5.80;;
60078;SDS011;45951;45.824;8.824;2023-09-07T07:05:20;7.80;;;5.70;;
60078;SDS011;45951;45.824;8.824;2023-09-07T07:07:02;7.90;;;6.00;;
60078;SDS011;45951;45.824;8.824;2023-09-07T07:08:44;7.32;;;5.68;;
60078;SDS011;45951;45.824;8.824;2023-09-07T07:10:24;7.93;;;6.22;;
60078;SDS011;45951;45.824;8.824;2023-09-07T07:12:04;8.48;;;6.13;;
60078;SDS011;45951;45.824;8.824;2023-09-07T07:13:45;7.93;;;6.40;;
60078;SDS011;45951;45.824;8.824;2023-09-07T07:15:25;8.45;;;6.30;;
60078;SDS011;45951;45.824;8.824;2023-09-07T07:17:06;8.73;;;6.32;;
60078;SDS011;45951;45.824;8.824;2023-09-07T07:18:46;7.07;;;5.65;;
60078;SDS011;45951;45.824;8.824;2023-09-07T07:20:26;7.43;;;5.78;;
60078;SDS011;45951;45.824;8.824;2023-09-07T07:22:07;8.02;;;5.47;;
60078;SDS011;45951;45.824;8.824;2023-09-07T07:23:47;7.80;;;5.85;;
60078;SDS011;45951;45.824;8.824;2023-09-07T07:25:27;8.48;;;5.70;;
60078;SDS011;45951;45.824;8.824;2023-09-07T07:27:08;8.48;;;5.70;;
60078;SDS011;45951;45.824;8.824;2023-09-07T07:28:48;7.20;;;5.80;;
60078;SDS011;45951;45.824;8.824;2023-09-07T07:30:29;6.75;;;5.45;;
60078;SDS011;45951;45.824;8.824;2023-09-07T07:32:09;7.85;;;6.20;;
60078;SDS011;45951;45.824;8.824;2023-09-07T07:33:50;7.85;;;5.75;;
60078;SDS011;45951;45.824;8.824;2023-09-07T07:35:30;8.95;;;5.97;;
60078;SDS011;45951;45.824;8.824;2023-09-07T07:37:11;8.07;;;5.63;;
60078;SDS011;45951;45.824;8.824;2023-09-07T07:38:51;7.90;;;5.70;;
60078;SDS011;45951;45.824;8.824;2023-09-07T07:40:32;9.70;;;6.00;;
60078;SDS011;45951;45.824;8.824;2023-09-07T07:42:12;8.70;;;5.78;;
60078;SDS011;45951;45.824;8.824;2023-09-07T07:43:52;10.77;;;5.85;;
60078;SDS011;45951;45.824;8.824;2023-09-07T07:45:33;8.70;;;5.55;;
60078;SDS011;45951;45.824;8.824;2023-09-07T07:47:18;7.38;;;5.75;;
60078;SDS011;45951;45.824;8.824;2023-09-07T07:48:58;7.20;;;5.53;;
60078;SDS011;45951;45.824;8.824;2023-09-07T07:50:38;7.95;;;5.88;;
60078;SDS011;45951;45.824;8.824;2023-09-07T07:52:19;7.80;;;5.63;;
60078;SDS011;45951;45.824;8.824;2023-09-07T07:53:59;8.02;;;5.75;;
60078;SDS011;45951;45.824;8.824;2023-09-07T07:55:40;8.60;;;5.82;;
60078;SDS011;45951;45.824;8.824;2023-09-07T07:57:20;9.05;;;5.63;;
60078;SDS011;45951;45.824;8.824;2023-09-07T07:59:01;8.65;;;6.10;;
60078;SDS011;45951;45.824;8.824;2023-09-07T08:00:42;7.63;;;6.38;;
60078;SDS011;45951;45.824;8.824;2023-09-07T08:02:24;7.32;;;6.13;;
60078;SDS011;45951;45.824;8.824;2023-09-07T08:04:05;9.25;;;6.47;;
60078;SDS011;45951;45.824;8.824;2023-09-07T08:05:46;7.47;;;5.90;;
60078;SDS011;45951;45.824;8.824;2023-09-07T08:07:27;8.32;;;6.20;;
60078;SDS011;45951;45.824;8.824;2023-09-07T08:09:07;8.93;;;6.10;;
60078;SDS011;45951;45.824;8.824;2023-09-07T08:10:48;7.75;;;6.47;;
60078;SDS011;45951;45.824;8.824;2023-09-07T08:12:28;8.15;;;6.15;;
60078;SDS011;45951;45.824;8.824;2023-09-07T08:14:09;11.02;;;6.55;;
60078;SDS011;45951;45.824;8.824;2023-09-07T08:15:49;9.23;;;6.05;;
60078;SDS011;45951;45.824;8.824;2023-09-07T08:17:29;7.25;;;5.82;;
60078;SDS011;45951;45.824;8.824;2023-09-07T08:19:10;9.05;;;6.78;;
60078;SDS011;45951;45.824;8.824;2023-09-07T08:20:50;8.88;;;6.70;;
60078;SDS011;45951;45.824;8.824;2023-09-07T08:22:30;7.82;;;6.28;;
60078;SDS011;45951;45.824;8.824;2023-09-07T08:24:12;9.23;;;6.13;;
60078;SDS011;45951;45.824;8.824;2023-09-07T08:25:53;7.57;;;6.45;;
60078;SDS011;45951;45.824;8.824;2023-09-07T08:27:34;7.57;;;6.28;;
60078;SDS011;45951;45.824;8.824;2023-09-07T08:29:14;8.07;;;6.22;;
60078;SDS011;45951;45.824;8.824;2023-09-07T08:30:54;10.73;;;6.63;;
60078;SDS011;45951;45.824;8.824;2023-09-07T08:32:35;8.77;;;6.00;;
60078;SDS011;45951;45.824;8.824;2023-09-07T08:34:15;9.05;;;6.35;;
60078;SDS011;45951;45.824;8.824;2023-09-07T08:35:56;8.48;;;5.75;;
60078;SDS011;45951;45.824;8.824;2023-09-07T08:37:37;10.32;;;6.72;;
60078;SDS011;45951;45.824;8.824;2023-09-07T08:39:17;8.80;;;6.85;;
60078;SDS011;45951;45.824;8.824;2023-09-07T08:41:01;8.02;;;6.50;;
60078;SDS011;45951;45.824;8.824;2023-09-07T08:42:45;7.97;;;6.75;;
60078;SDS011;45951;45.824;8.824;2023-09-07T08:44:25;8.63;;;6.40;;
60078;SDS011;45951;45.824;8.824;2023-09-07T08:46:13;7.95;;;6.25;;
60078;SDS011;45951;45.824;8.824;2023-09-07T08:47:54;11.00;;;6.43;;
60078;SDS011;45951;45.824;8.824;2023-09-07T08:49:35;9.45;;;6.60;;
60078;SDS011;45951;45.824;8.824;2023-09-07T08:51:16;8.40;;;6.78;;
60078;SDS011;45951;45.824;8.824;2023-09-07T08:52:57;8.55;;;6.38;;
60078;SDS011;45951;45.824;8.824;2023-09-07T08:54:39;8.15;;;6.85;;
60078;SDS011;45951;45.824;8.824;2023-09-07T08:56:21;9.68;;;6.57;;
60078;SDS011;45951;45.824;8.824;2023-09-07T08:58:01;8.80;;;7.15;;
60078;SDS011;45951;45.824;8.824;2023-09-07T08:59:42;7.68;;;6.47;;
60078;SDS011;45951;45.824;8.824;2023-09-07T09:01:23;7.80;;;6.07;;
60078;SDS011;45951;45.824;8.824;2023-09-07T09:03:03;9.05;;;6.40;;
60078;SDS011;45951;45.824;8.824;2023-09-07T09:04:44;8.50;;;6.22;;
60078;SDS011;45951;45.824;8.824;2023-09-07T09:06:24;9.02;;;6.78;;
60078;SDS011;45951;45.824;8.824;2023-09-07T09:08:05;8.70;;;6.65;;
60078;SDS011;45951;45.824;8.824;2023-09-07T09:09:45;9.73;;;6.80;;
60078;SDS011;45951;45.824;8.824;2023-09-07T09:11:26;8.07;;;6.30;;
60078;SDS011;45951;45.824;8.824;2023-09-07T09:13:07;8.30;;;6.60;;
60078;SDS011;45951;45.824;8.824;2023-09-07T09:14:48;7.75;;;6.35;;
60078;SDS011;45951;45.824;8.824;2023-09-07T09:16:28;9.77;;;6.72;;
60078;SDS011;45951;45.824;8.824;2023-09-07T09:18:11;10.25;;;6.95;;
60078;SDS011;45951;45.824;8.824;2023-09-07T09:19:52;9.30;;;6.60;;
60078;SDS011;45951;45.824;8.824;2023-09-07T09:21:33;7.93;;;6.55;;
60078;SDS011;45951;45.824;8.824;2023-09-07T09:23:13;10.13;;;7.20;;
60078;SDS011;45951;45.824;8.824;2023-09-07T09:24:55;8.05;;;6.82;;
60078;SDS011;45951;45.824;8.824;2023-09-07T09:26:38;9.63;;;6.80;;
60078;SDS011;45951;45.824;8.824;2023-09-07T09:28:19;8.10;;;6.53;;
60078;SDS011;45951;45.824;8.824;2023-09-07T09:29:59;9.40;;;7.30;;
60078;SDS011;45951;45.824;8.824;2023-09-07T09:31:39;8.75;;;6.88;;
60078;SDS011;45951;45.824;8.824;2023-09-07T09:33:20;10.55;;;7.50;;
60078;SDS011;45951;45.824;8.824;2023-09-07T09:35:01;10.40;;;6.90;;
60078;SDS011;45951;45.824;8.824;2023-09-07T09:36:45;10.73;;;8.20;;
60078;SDS011;45951;45.824;8.824;2023-09-07T09:38:26;9.50;;;8.07;;
60078;SDS011;45951;45.824;8.824;2023-09-07T09:40:06;9.88;;;7.65;;
60078;SDS011;45951;45.824;8.824;2023-09-07T09:41:50;8.73;;;7.30;;
60078;SDS011;45951;45.824;8.824;2023-09-07T09:43:31;10.50;;;8.00;;
60078;SDS011;45951;45.824;8.824;2023-09-07T09:45:12;10.82;;;8.13;;
60078;SDS011;45951;45.824;8.824;2023-09-07T09:46:53;10.00;;;7.90;;
60078;SDS011;45951;45.824;8.824;2023-09-07T09:48:37;11.15;;;8.48;;
60078;SDS011;45951;45.824;8.824;2023-09-07T09:50:17;11.23;;;7.82;;
60078;SDS011;45951;45.824;8.824;2023-09-07T09:51:58;9.65;;;8.15;;
60078;SDS011;45951;45.824;8.824;2023-09-07T09:53:38;10.32;;;7.95;;
60078;SDS011;45951;45.824;8.824;2023-09-07T09:55:19;11.05;;;8.57;;
60078;SDS011;45951;45.824;8.824;2023-09-07T09:57:00;9.90;;;8.27;;
60078;SDS011;45951;45.824;8.824;2023-09-07T09:58:40;9.70;;;8.10;;
60078;SDS011;45951;45.824;8.824;2023-09-07T10:00:20;10.75;;;8.30;;
60078;SDS011;45951;45.824;8.824;2023-09-07T10:02:07;9.38;;;8.38;;
60078;SDS011;45951;45.824;8.824;2023-09-07T10:03:47;10.57;;;8.23;;
60078;SDS011;45951;45.824;8.824;2023-09-07T10:05:29;9.85;;;7.88;;